createdAt,value
2023-04-22T00:02:08.630Z,5.22
2023-04-22T00:04:37.460Z,4.65
2023-04-22T00:07:04.707Z,5.65
2023-04-22T00:09:31.775Z,4.38
2023-04-22T00:11:59.074Z,6.03
2023-04-22T00:14:26.023Z,4.70
2023-04-22T00:16:53.086Z,4.45
2023-04-22T00:19:20.099Z,5.57
2023-04-22T00:21:47.035Z,6.47
2023-04-22T00:24:13.967Z,4.40
2023-04-22T00:26:41.081Z,4.10
2023-04-22T00:29:08.096Z,4.20
2023-04-22T00:31:35.086Z,4.32
2023-04-22T00:34:02.182Z,9.65
2023-04-22T00:36:29.171Z,4.50
2023-04-22T00:38:56.288Z,5.63
2023-04-22T00:41:23.464Z,6.90
2023-04-22T00:43:50.583Z,8.65
2023-04-22T00:46:17.611Z,18.38
2023-04-22T00:48:45.235Z,8.32
2023-04-22T00:51:12.288Z,9.95
2023-04-22T00:53:39.330Z,7.10
2023-04-22T00:56:06.577Z,7.38
2023-04-22T00:58:33.917Z,7.40
2023-04-22T01:01:01.294Z,7.43
2023-04-22T01:03:30.770Z,8.23
2023-04-22T01:05:58.444Z,8.40
2023-04-22T01:08:28.558Z,6.93
2023-04-22T01:10:56.900Z,5.45
2023-04-22T01:13:24.244Z,6.40
2023-04-22T01:15:51.840Z,6.15
2023-04-22T01:18:18.818Z,5.38
2023-04-22T01:20:45.977Z,5.20
2023-04-22T01:23:31.039Z,6.65
2023-04-22T01:25:58.091Z,5.85
2023-04-22T01:28:26.059Z,5.00
2023-04-22T01:30:54.365Z,9.52
2023-04-22T01:33:21.443Z,7.25
2023-04-22T01:35:48.672Z,6.80
2023-04-22T01:38:15.675Z,8.63
2023-04-22T01:40:42.770Z,5.72
2023-04-22T01:43:09.860Z,8.45
2023-04-22T01:45:36.951Z,7.28
2023-04-22T01:48:04.808Z,9.95
2023-04-22T01:50:31.918Z,6.38
2023-04-22T01:52:58.991Z,6.03
2023-04-22T01:55:26.079Z,5.13
2023-04-22T01:57:53.250Z,7.18
2023-04-22T02:00:20.250Z,5.70
2023-04-22T02:02:48.912Z,6.65
2023-04-22T02:05:16.307Z,5.72
2023-04-22T02:07:46.120Z,5.18
2023-04-22T02:10:16.564Z,5.57
2023-04-22T02:12:44.058Z,4.57
2023-04-22T02:15:11.782Z,5.90
2023-04-22T02:17:39.317Z,6.32
2023-04-22T02:20:07.022Z,6.15
2023-04-22T02:22:35.712Z,5.05
2023-04-22T02:25:03.497Z,6.43
2023-04-22T02:27:33.371Z,6.45
2023-04-22T02:30:00.317Z,6.40
2023-04-22T02:32:27.621Z,5.20
2023-04-22T02:34:54.536Z,6.00
2023-04-22T02:37:23.032Z,5.13
2023-04-22T02:39:50.171Z,6.95
2023-04-22T02:42:17.671Z,5.97
2023-04-22T02:44:44.624Z,6.55
2023-04-22T02:47:12.497Z,5.03
2023-04-22T02:49:40.870Z,6.32
2023-04-22T02:52:09.857Z,4.63
2023-04-22T02:54:36.986Z,4.18
2023-04-22T02:57:04.103Z,7.10
2023-04-22T02:59:31.523Z,4.28
2023-04-22T03:01:59.229Z,5.22
2023-04-22T03:04:49.369Z,4.65
2023-04-22T03:07:16.413Z,5.82
2023-04-22T03:09:43.436Z,5.70
2023-04-22T03:12:10.649Z,4.88
2023-04-22T03:14:37.819Z,4.30
2023-04-22T03:17:06.196Z,6.75
2023-04-22T03:19:33.452Z,5.40
2023-04-22T03:22:00.429Z,7.15
2023-04-22T03:24:27.453Z,6.70
2023-04-22T03:26:54.527Z,5.57
2023-04-22T03:29:21.688Z,4.65
2023-04-22T03:31:48.894Z,5.70
2023-04-22T03:34:16.520Z,6.20
2023-04-22T03:36:45.801Z,5.32
2023-04-22T03:39:13.318Z,4.68
2023-04-22T03:41:41.840Z,6.18
2023-04-22T03:44:09.083Z,4.53
2023-04-22T03:46:36.727Z,5.90
2023-04-22T03:49:24.274Z,5.03
2023-04-22T03:51:51.211Z,4.00
2023-04-22T03:54:22.647Z,5.65
2023-04-22T03:56:52.156Z,5.10
2023-04-22T03:59:21.496Z,5.63
2023-04-22T04:01:50.758Z,4.75
2023-04-22T04:04:20.692Z,5.93
2023-04-22T04:06:52.813Z,4.50
2023-04-22T04:09:20.232Z,5.57
2023-04-22T04:11:47.321Z,5.03
2023-04-22T04:14:14.696Z,4.78
2023-04-22T04:16:45.589Z,8.65
2023-04-22T04:19:18.841Z,5.20
2023-04-22T04:21:46.079Z,5.78
2023-04-22T04:24:13.087Z,4.68
2023-04-22T04:26:45.350Z,7.03
2023-04-22T04:29:20.513Z,6.68
2023-04-22T04:31:57.698Z,5.95
2023-04-22T04:34:27.256Z,4.43
2023-04-22T04:36:56.192Z,4.55
2023-04-22T04:39:30.810Z,5.78
2023-04-22T04:42:01.412Z,6.90
2023-04-22T04:44:33.933Z,8.20
2023-04-22T04:47:04.317Z,3.83
2023-04-22T04:49:32.028Z,3.67
2023-04-22T04:52:01.867Z,4.97
2023-04-22T04:54:30.105Z,5.07
2023-04-22T04:56:59.528Z,5.97
2023-04-22T04:59:26.739Z,4.53
2023-04-22T05:01:54.597Z,4.93
2023-04-22T05:04:22.295Z,5.22
2023-04-22T05:06:49.439Z,7.32
2023-04-22T05:09:17.070Z,4.68
2023-04-22T05:11:46.682Z,7.63
2023-04-22T05:14:19.582Z,3.97
2023-04-22T05:16:47.727Z,4.07
2023-04-22T05:19:15.310Z,4.32
2023-04-22T05:21:43.298Z,3.75
2023-04-22T05:24:10.437Z,3.58
2023-04-22T05:26:37.405Z,6.50
2023-04-22T05:29:10.539Z,3.53
2023-04-22T05:31:37.807Z,4.07
2023-04-22T05:34:04.905Z,4.20
2023-04-22T05:36:32.210Z,5.22
2023-04-22T05:39:00.100Z,4.22
2023-04-22T05:41:28.119Z,4.38
2023-04-22T05:43:56.902Z,3.70
2023-04-22T05:46:24.727Z,4.18
2023-04-22T05:48:52.128Z,3.90
2023-04-22T05:51:51.550Z,4.70
2023-04-22T05:54:21.987Z,7.25
2023-04-22T05:56:49.082Z,6.45
2023-04-22T05:59:16.889Z,4.25
2023-04-22T06:01:45.378Z,4.05
2023-04-22T06:04:16.377Z,5.38
2023-04-22T06:06:44.431Z,4.97
2023-04-22T06:09:14.227Z,3.83
2023-04-22T06:11:42.549Z,3.38
2023-04-22T06:14:09.682Z,2.95
2023-04-22T06:16:36.891Z,5.10
2023-04-22T06:19:06.543Z,4.18
2023-04-22T06:21:34.028Z,4.25
2023-04-22T06:24:01.488Z,2.92
2023-04-22T06:26:28.710Z,3.70
2023-04-22T06:28:56.293Z,2.33
2023-04-22T06:31:24.224Z,2.30
2023-04-22T06:33:51.310Z,2.40
2023-04-22T06:36:19.400Z,4.35
2023-04-22T06:38:52.786Z,2.90
2023-04-22T06:41:40.830Z,11.90
2023-04-22T06:44:20.629Z,2.88
2023-04-22T06:47:05.244Z,10.38
2023-04-22T06:49:39.431Z,5.20
2023-04-22T06:52:39.181Z,2.55
2023-04-22T06:55:06.836Z,8.55
2023-04-22T06:57:33.855Z,2.10
2023-04-22T07:00:05.578Z,6.10
2023-04-22T07:02:35.317Z,3.70
2023-04-22T07:05:03.162Z,2.25
2023-04-22T07:07:30.852Z,4.82
2023-04-22T07:09:57.917Z,5.55
2023-04-22T07:12:30.598Z,5.93
2023-04-22T07:14:57.623Z,3.67
2023-04-22T07:17:24.659Z,1.73
2023-04-22T07:19:51.782Z,4.28
2023-04-22T07:22:18.869Z,2.10
2023-04-22T07:24:45.950Z,2.00
2023-04-22T07:27:13.037Z,2.47
2023-04-22T07:29:40.440Z,3.00
2023-04-22T07:32:07.641Z,2.63
2023-04-22T07:34:35.042Z,2.00
2023-04-22T07:37:02.187Z,1.55
2023-04-22T07:39:29.215Z,6.85
2023-04-22T07:41:57.862Z,2.58
2023-04-22T07:44:25.033Z,1.52
2023-04-22T07:46:52.268Z,1.70
2023-04-22T07:49:19.917Z,5.15
2023-04-22T07:51:47.045Z,1.95
2023-04-22T07:54:14.097Z,4.57
2023-04-22T07:56:41.206Z,2.53
2023-04-22T07:59:08.441Z,1.75
2023-04-22T08:01:35.558Z,3.05
2023-04-22T08:04:03.272Z,2.20
2023-04-22T08:06:30.862Z,2.17
2023-04-22T08:08:57.903Z,3.67
2023-04-22T08:11:24.900Z,38.58
2023-04-22T08:13:51.944Z,1.70
2023-04-22T08:16:19.231Z,1.77
2023-04-22T08:18:46.308Z,3.03
2023-04-22T08:21:13.516Z,1.70
2023-04-22T08:23:40.575Z,1.55
2023-04-22T08:26:08.409Z,1.98
2023-04-22T08:28:35.617Z,2.78
2023-04-22T08:31:02.797Z,2.15
2023-04-22T08:33:29.901Z,4.00
2023-04-22T08:35:57.032Z,1.90
2023-04-22T08:38:23.960Z,1.85
2023-04-22T08:40:50.972Z,5.13
2023-04-22T08:43:17.883Z,5.38
2023-04-22T08:45:44.912Z,2.75
2023-04-22T08:48:16.419Z,3.33
2023-04-22T08:50:43.444Z,4.35
2023-04-22T08:53:10.400Z,4.85
2023-04-22T08:55:37.556Z,4.38
2023-04-22T08:58:06.208Z,4.13
2023-04-22T09:00:34.510Z,3.22
2023-04-22T09:03:05.470Z,3.45
2023-04-22T09:05:37.130Z,2.75
2023-04-22T09:08:04.241Z,2.28
2023-04-22T09:10:33.550Z,1.80
2023-04-22T09:13:01.336Z,1.90
2023-04-22T09:15:29.047Z,3.47
2023-04-22T09:17:56.855Z,3.13
2023-04-22T09:20:27.744Z,1.48
2023-04-22T09:22:55.114Z,2.05
2023-04-22T09:25:26.253Z,2.85
2023-04-22T09:27:54.538Z,2.00
2023-04-22T09:30:25.855Z,2.30
2023-04-22T09:33:01.029Z,3.67
2023-04-22T09:35:29.252Z,1.75
2023-04-22T09:37:56.926Z,1.83
2023-04-22T09:40:24.051Z,3.42
2023-04-22T09:42:55.358Z,1.80
2023-04-22T09:45:35.043Z,2.08
2023-04-22T09:48:06.496Z,2.50
2023-04-22T09:50:33.560Z,4.38
2023-04-22T09:53:01.940Z,2.83
2023-04-22T09:55:29.941Z,2.00
2023-04-22T09:57:57.754Z,6.50
2023-04-22T10:00:27.266Z,5.82
2023-04-22T10:02:54.377Z,9.00
2023-04-22T10:05:21.821Z,14.13
2023-04-22T10:07:48.967Z,3.10
2023-04-22T10:10:16.062Z,4.22
2023-04-22T10:12:42.984Z,8.80
2023-04-22T10:15:10.177Z,10.95
2023-04-22T10:17:38.422Z,6.18
2023-04-22T10:20:13.683Z,8.40
2023-04-22T10:22:41.988Z,3.45
2023-04-22T10:25:13.430Z,2.55
2023-04-22T10:27:40.691Z,2.20
2023-04-22T10:30:09.409Z,2.10
2023-04-22T10:32:36.532Z,2.72
2023-04-22T10:35:08.078Z,5.95
2023-04-22T10:37:35.235Z,2.97
2023-04-22T10:40:16.608Z,3.53
2023-04-22T10:42:49.430Z,4.03
2023-04-22T10:45:16.736Z,3.05
2023-04-22T10:47:44.122Z,2.13
2023-04-22T10:50:29.722Z,2.90
2023-04-22T10:53:03.346Z,7.07
2023-04-22T10:55:51.021Z,2.25
2023-04-22T10:58:22.379Z,2.90
2023-04-22T11:00:54.518Z,2.35
2023-04-22T11:03:27.001Z,4.45
2023-04-22T11:06:13.555Z,18.88
2023-04-22T11:08:44.701Z,4.25
2023-04-22T11:11:13.701Z,8.18
2023-04-22T11:13:44.125Z,14.95
2023-04-22T11:16:11.714Z,2.15
2023-04-22T11:18:38.897Z,8.43
2023-04-22T11:21:06.685Z,6.35
2023-04-22T11:23:33.587Z,2.00
2023-04-22T11:26:02.177Z,2.20
2023-04-22T11:28:29.330Z,2.40
2023-04-22T11:31:04.063Z,3.70
2023-04-22T11:33:32.892Z,2.22
2023-04-22T11:35:59.845Z,2.08
2023-04-22T11:38:26.820Z,3.03
2023-04-22T11:40:55.219Z,8.40
2023-04-22T11:43:22.206Z,2.47
2023-04-22T11:45:49.154Z,2.55
2023-04-22T11:48:16.834Z,4.13
2023-04-22T11:50:44.839Z,3.15
2023-04-22T11:53:16.500Z,2.22
2023-04-22T11:55:44.748Z,3.95
2023-04-22T11:58:13.434Z,6.25
2023-04-22T12:00:47.407Z,4.72
2023-04-22T12:03:22.132Z,2.53
2023-04-22T12:05:57.480Z,2.40
2023-04-22T12:08:26.692Z,3.28
2023-04-22T12:10:58.093Z,2.58
2023-04-22T12:13:33.040Z,5.10
2023-04-22T12:16:01.309Z,5.40
2023-04-22T12:18:32.760Z,3.25
2023-04-22T12:21:01.437Z,4.80
2023-04-22T12:23:28.637Z,2.20
2023-04-22T12:25:55.750Z,4.22
2023-04-22T12:28:22.801Z,4.05
2023-04-22T12:30:49.686Z,3.67
2023-04-22T12:33:16.725Z,4.38
2023-04-22T12:35:48.855Z,4.03
2023-04-22T12:38:16.143Z,2.20
2023-04-22T12:40:45.127Z,5.00
2023-04-22T12:43:12.361Z,2.38
2023-04-22T12:45:39.478Z,2.95
2023-04-22T12:48:09.531Z,2.92
2023-04-22T12:50:39.369Z,5.43
2023-04-22T12:53:09.563Z,3.20
2023-04-22T12:55:36.536Z,2.08
2023-04-22T12:58:04.294Z,4.32
2023-04-22T13:00:31.270Z,2.28
2023-04-22T13:02:58.446Z,3.30
2023-04-22T13:05:30.380Z,4.63
2023-04-22T13:08:06.675Z,6.18
2023-04-22T13:10:37.542Z,5.35
2023-04-22T13:13:16.780Z,3.05
2023-04-22T13:18:43.672Z,7.13
2023-04-22T13:21:14.887Z,2.85
2023-04-22T13:23:46.523Z,2.05
2023-04-22T13:26:22.548Z,2.70
2023-04-22T13:28:49.676Z,2.38
2023-04-22T13:31:16.923Z,2.40
2023-04-22T13:33:44.354Z,4.40
2023-04-22T13:36:11.391Z,16.25
2023-04-22T13:38:38.550Z,2.40
2023-04-22T13:41:05.506Z,2.20
2023-04-22T13:43:32.578Z,3.22
2023-04-22T13:45:59.835Z,3.33
2023-04-22T13:48:27.659Z,2.67
2023-04-22T13:50:54.968Z,4.70
2023-04-22T13:53:21.857Z,2.45
2023-04-22T13:55:48.788Z,4.07
2023-04-22T13:58:15.742Z,5.90
2023-04-22T14:00:42.780Z,6.82
2023-04-22T14:03:09.916Z,3.25
2023-04-22T14:05:37.060Z,2.67
2023-04-22T14:08:04.232Z,3.40
2023-04-22T14:10:31.243Z,2.28
2023-04-22T14:12:58.217Z,3.15
2023-04-22T14:15:25.284Z,3.03
2023-04-22T14:17:52.754Z,3.92
2023-04-22T14:20:19.734Z,6.35
2023-04-22T14:22:46.806Z,3.58
2023-04-22T14:25:13.816Z,5.32
2023-04-22T14:27:40.753Z,6.82
2023-04-22T14:30:08.659Z,6.68
2023-04-22T14:32:35.907Z,5.22
2023-04-22T14:35:02.950Z,4.93
2023-04-22T14:37:32.161Z,3.45
2023-04-22T14:39:59.210Z,4.55
2023-04-22T14:42:26.403Z,5.60
2023-04-22T14:44:53.477Z,4.35
2023-04-22T14:47:20.518Z,3.75
2023-04-22T14:49:47.519Z,4.95
2023-04-22T14:52:14.588Z,2.40
2023-04-22T14:54:41.571Z,3.47
2023-04-22T14:57:08.559Z,2.83
2023-04-22T14:59:35.611Z,5.95
2023-04-22T15:02:02.834Z,2.65
2023-04-22T15:04:29.997Z,2.83
2023-04-22T15:07:00.164Z,2.80
2023-04-22T15:09:27.986Z,3.72
2023-04-22T15:11:56.504Z,3.22
2023-04-22T15:14:23.674Z,2.97
2023-04-22T15:16:50.735Z,3.47
2023-04-22T15:19:17.864Z,8.13
2023-04-22T15:21:44.848Z,2.67
2023-04-22T15:24:11.793Z,2.30
2023-04-22T15:26:40.733Z,5.30
2023-04-22T15:29:07.884Z,3.88
2023-04-22T15:31:34.941Z,6.43
2023-04-22T15:34:01.946Z,6.57
2023-04-22T15:36:29.714Z,2.92
2023-04-22T15:38:56.765Z,3.63
2023-04-22T15:41:24.225Z,5.35
2023-04-22T15:43:52.013Z,6.07
2023-04-22T15:46:19.767Z,4.88
2023-04-22T15:48:48.523Z,4.88
2023-04-22T15:51:16.171Z,5.53
2023-04-22T15:53:45.376Z,3.53
2023-04-22T15:56:12.790Z,4.45
2023-04-22T15:58:39.904Z,5.32
2023-04-22T16:01:18.149Z,11.98
2023-04-22T16:03:50.242Z,12.48
2023-04-22T16:06:18.146Z,12.93
2023-04-22T16:08:45.732Z,10.27
2023-04-22T16:11:14.073Z,6.65
2023-04-22T16:13:41.231Z,4.63
2023-04-22T16:16:08.619Z,6.05
2023-04-22T16:18:35.832Z,6.20
2023-04-22T16:21:03.784Z,5.75
2023-04-22T16:23:31.816Z,4.18
2023-04-22T16:25:58.725Z,4.68
2023-04-22T16:28:25.764Z,3.42
2023-04-22T16:30:52.772Z,5.18
2023-04-22T16:33:19.823Z,8.20
2023-04-22T16:35:46.884Z,5.28
2023-04-22T16:38:13.890Z,3.78
2023-04-22T16:40:41.075Z,7.68
2023-04-22T16:43:09.360Z,5.68
2023-04-22T16:45:36.520Z,5.68
2023-04-22T16:48:03.681Z,6.82
2023-04-22T16:50:30.694Z,5.50
2023-04-22T16:52:57.840Z,7.68
2023-04-22T16:55:24.830Z,14.77
2023-04-22T16:57:51.825Z,19.95
2023-04-22T17:00:18.910Z,29.38
2023-04-22T17:02:46.098Z,38.80
2023-04-22T17:05:13.363Z,42.25
2023-04-22T17:07:40.618Z,44.25
2023-04-22T17:10:27.659Z,88.13
2023-04-22T17:12:54.643Z,84.13
2023-04-22T17:15:21.901Z,92.68
2023-04-22T17:17:48.835Z,102.65
2023-04-22T17:20:16.003Z,102.80
2023-04-22T17:22:43.227Z,105.25
2023-04-22T17:25:10.465Z,102.80
2023-04-22T17:27:37.536Z,87.38
2023-04-22T17:30:04.989Z,100.45
2023-04-22T17:32:32.558Z,114.60
2023-04-22T17:35:00.025Z,108.35
2023-04-22T17:37:27.146Z,100.25
2023-04-22T17:39:56.330Z,110.75
2023-04-22T17:42:27.252Z,88.32
2023-04-22T17:44:59.630Z,93.63
2023-04-22T17:47:26.678Z,78.72
2023-04-22T17:49:53.863Z,80.13
2023-04-22T17:52:21.209Z,76.18
2023-04-22T17:54:48.232Z,79.97
2023-04-22T17:57:16.130Z,84.60
2023-04-22T17:59:43.315Z,100.93
2023-04-22T18:02:13.238Z,108.90
2023-04-22T18:04:40.608Z,100.68
2023-04-22T18:07:07.691Z,93.95
2023-04-22T18:09:34.764Z,94.28
2023-04-22T18:12:01.823Z,98.07
2023-04-22T18:14:28.993Z,93.78
2023-04-22T18:16:56.065Z,80.45
2023-04-22T18:19:23.202Z,79.45
2023-04-22T18:21:59.514Z,70.45
2023-04-22T18:24:28.049Z,58.40
2023-04-22T18:26:54.965Z,57.13
2023-04-22T18:29:22.036Z,48.20
2023-04-22T18:31:49.146Z,52.78
2023-04-22T18:34:16.108Z,47.13
2023-04-22T18:36:43.140Z,42.47
2023-04-22T18:39:10.814Z,42.97
2023-04-22T18:41:39.511Z,39.78
2023-04-22T18:44:06.727Z,35.33
2023-04-22T18:46:33.738Z,27.45
2023-04-22T18:49:00.886Z,22.48
2023-04-22T18:51:28.054Z,16.30
2023-04-22T18:53:55.062Z,18.50
2023-04-22T18:56:22.091Z,15.77
2023-04-22T18:58:50.062Z,18.30
2023-04-22T19:01:17.449Z,17.23
2023-04-22T19:03:45.836Z,14.38
2023-04-22T19:06:13.182Z,14.50
2023-04-22T19:08:40.255Z,15.48
2023-04-22T19:11:07.254Z,13.07
2023-04-22T19:13:34.395Z,11.73
2023-04-22T19:16:01.405Z,10.45
2023-04-22T19:18:28.495Z,13.60
2023-04-22T19:20:55.627Z,9.73
2023-04-22T19:23:22.585Z,10.23
2023-04-22T19:25:49.862Z,12.57
2023-04-22T19:28:16.798Z,12.07
2023-04-22T19:30:43.832Z,12.15
2023-04-22T19:33:10.831Z,12.48
2023-04-22T19:35:37.880Z,18.48
2023-04-22T19:38:04.934Z,13.05
2023-04-22T19:40:31.968Z,12.30
2023-04-22T19:42:59.144Z,15.18
2023-04-22T19:45:26.880Z,13.45
2023-04-22T19:47:54.144Z,11.38
2023-04-22T19:50:21.332Z,9.27
2023-04-22T19:52:48.404Z,11.80
2023-04-22T19:55:15.384Z,11.25
2023-04-22T19:57:43.371Z,10.57
2023-04-22T20:00:11.298Z,10.77
2023-04-22T20:02:42.175Z,13.75
2023-04-22T20:05:10.345Z,14.70
2023-04-22T20:07:38.363Z,11.60
2023-04-22T20:10:06.778Z,12.68
2023-04-22T20:12:34.326Z,13.70
2023-04-22T20:15:01.343Z,15.10
2023-04-22T20:17:35.772Z,15.05
2023-04-22T20:20:06.904Z,16.83
2023-04-22T20:22:34.353Z,16.77
2023-04-22T20:25:05.444Z,16.40
2023-04-22T20:27:34.629Z,25.00
2023-04-22T20:30:01.754Z,23.67
2023-04-22T20:32:32.150Z,19.88
2023-04-22T20:34:59.384Z,20.48
2023-04-22T20:37:28.594Z,17.35
2023-04-22T20:39:55.930Z,19.42
2023-04-22T20:42:23.088Z,16.08
2023-04-22T20:44:50.251Z,20.33
2023-04-22T20:47:17.279Z,18.20
2023-04-22T20:49:44.801Z,15.52
2023-04-22T20:52:12.250Z,14.88
2023-04-22T20:54:39.511Z,12.55
2023-04-22T20:57:07.308Z,13.55
2023-04-22T20:59:34.730Z,13.80
2023-04-22T21:02:02.193Z,11.65
2023-04-22T21:04:29.392Z,12.20
2023-04-22T21:06:57.382Z,13.07
2023-04-22T21:09:27.401Z,12.50
2023-04-22T21:11:54.792Z,13.35
2023-04-22T21:14:26.541Z,17.90
2023-04-22T21:16:56.445Z,17.65
2023-04-22T21:19:23.499Z,15.13
2023-04-22T21:21:50.532Z,9.52
2023-04-22T21:24:17.513Z,15.55
2023-04-22T21:26:44.629Z,14.88
2023-04-22T21:29:12.019Z,13.98
2023-04-22T21:31:38.926Z,15.18
2023-04-22T21:34:08.657Z,11.35
2023-04-22T21:36:35.815Z,14.52
2023-04-22T21:39:04.604Z,19.33
2023-04-22T21:41:31.895Z,16.10
2023-04-22T21:43:58.964Z,8.73
2023-04-22T21:46:26.200Z,11.52
2023-04-22T21:48:53.790Z,14.30
2023-04-22T21:51:20.933Z,8.55
2023-04-22T21:53:47.868Z,11.48
2023-04-22T21:56:14.827Z,11.00
2023-04-22T21:58:42.033Z,8.20
2023-04-22T22:01:09.126Z,10.50
2023-04-22T22:03:36.786Z,8.57
2023-04-22T22:06:04.464Z,7.80
2023-04-22T22:08:31.661Z,6.65
2023-04-22T22:10:59.532Z,7.72
2023-04-22T22:13:26.711Z,8.65
2023-04-22T22:15:56.036Z,8.32
2023-04-22T22:18:23.123Z,8.38
2023-04-22T22:20:50.035Z,11.05
2023-04-22T22:23:18.806Z,10.23
2023-04-22T22:25:45.721Z,12.80
2023-04-22T22:28:12.704Z,12.18
2023-04-22T22:30:39.737Z,11.77
2023-04-22T22:33:06.824Z,18.02
2023-04-22T22:35:33.802Z,10.68
2023-04-22T22:38:01.073Z,11.88
2023-04-22T22:40:28.311Z,15.02
2023-04-22T22:42:55.428Z,14.35
2023-04-22T22:45:22.369Z,13.32
2023-04-22T22:47:49.857Z,14.85
2023-04-22T22:50:16.817Z,13.07
2023-04-22T22:52:43.918Z,14.25
2023-04-22T22:55:11.388Z,15.02
2023-04-22T22:57:38.555Z,12.68
2023-04-22T23:00:06.971Z,15.18
2023-04-22T23:02:34.286Z,12.32
2023-04-22T23:05:01.398Z,15.23
2023-04-22T23:07:28.693Z,12.68
2023-04-22T23:09:55.725Z,14.05
2023-04-22T23:12:22.660Z,13.95
2023-04-22T23:14:49.605Z,17.20
2023-04-22T23:17:17.296Z,18.02
2023-04-22T23:19:44.684Z,13.77
2023-04-22T23:22:12.560Z,12.10
2023-04-22T23:24:40.222Z,16.10
2023-04-22T23:27:07.539Z,15.68
2023-04-22T23:29:36.686Z,13.60
2023-04-22T23:32:05.549Z,14.20
2023-04-22T23:34:34.372Z,12.85
2023-04-22T23:37:05.684Z,14.85
2023-04-22T23:39:32.870Z,11.93
2023-04-22T23:41:59.811Z,15.52
2023-04-22T23:44:26.829Z,12.98
2023-04-22T23:46:53.809Z,14.98
2023-04-22T23:49:21.160Z,10.63
2023-04-22T23:51:48.278Z,15.70
2023-04-22T23:54:17.479Z,11.38
2023-04-22T23:56:44.771Z,18.30
2023-04-22T23:59:12.023Z,10.73
